Time;durP1;ratioP1;P1;durP2;ratioP2;P2;SDS_P1;SDS_P2;PMS_P1;PMS_P2;Temp;Humidity;BMP_temperature;BMP_pressure;BME280_temperature;BME280_humidity;BME280_pressure;Samples;Min_cycle;Max_cycle;Signal;HPM_P1;HPM_P2
2021/03/19 00:01:33;;;;;;;11.45;6.50;;;5.90;99.90;;;;;;6245400;23;20068;-78
2021/03/19 00:03:59;;;;;;;9.00;5.80;;;5.90;99.20;;;;;;6218628;23;20011;-74
2021/03/19 00:06:25;;;;;;;9.65;6.40;;;5.90;99.10;;;;;;6245757;23;20008;-78
2021/03/19 00:08:50;;;;;;;9.75;5.55;;;5.90;98.20;;;;;;6246240;23;20528;-73
2021/03/19 00:11:17;;;;;;;10.43;6.18;;;5.80;98.40;;;;;;6246249;23;20042;-73
2021/03/19 00:13:43;;;;;;;8.70;6.43;;;5.70;98.60;;;;;;6246366;23;20000;-73
2021/03/19 00:16:09;;;;;;;7.72;5.82;;;5.70;98.50;;;;;;6245328;23;20007;-73
2021/03/19 00:18:36;;;;;;;8.15;5.90;;;5.70;98.50;;;;;;6244803;23;20008;-73
2021/03/19 00:21:03;;;;;;;7.43;5.88;;;5.70;98.70;;;;;;6245356;23;20026;-72
2021/03/19 00:23:29;;;;;;;11.35;6.47;;;5.60;98.70;;;;;;6245606;23;20000;-73
2021/03/19 00:25:55;;;;;;;10.23;6.47;;;5.60;98.70;;;;;;6244274;23;20008;-73
2021/03/19 00:28:21;;;;;;;11.38;6.93;;;5.60;98.90;;;;;;6242156;23;20170;-73
2021/03/19 00:30:47;;;;;;;12.25;7.32;;;5.70;99.00;;;;;;6246121;23;20477;-73
2021/03/19 00:33:14;;;;;;;11.75;7.18;;;5.70;99.30;;;;;;6246420;23;20361;-73
2021/03/19 00:35:41;;;;;;;12.25;7.93;;;5.70;99.20;;;;;;6246285;23;19996;-71
2021/03/19 00:38:08;;;;;;;9.43;6.65;;;5.70;99.30;;;;;;6245452;23;20071;-74
2021/03/19 00:40:34;;;;;;;11.15;6.32;;;5.60;99.30;;;;;;6245447;23;20422;-73
2021/03/19 00:43:00;;;;;;;10.25;6.75;;;5.50;99.60;;;;;;6218308;23;20019;-73
2021/03/19 00:45:27;;;;;;;9.32;7.45;;;5.50;99.50;;;;;;6245471;23;20005;-78
2021/03/19 00:47:54;;;;;;;13.25;7.18;;;5.50;99.40;;;;;;6243942;23;20637;-78
2021/03/19 00:50:32;;;;;;;13.32;8.38;;;5.50;99.80;;;;;;6245173;23;20007;-75
2021/03/19 00:52:58;;;;;;;12.73;7.47;;;5.50;99.90;;;;;;6245759;23;19997;-78
2021/03/19 00:55:24;;;;;;;11.68;6.43;;;5.50;99.90;;;;;;6218360;23;20070;-76
2021/03/19 00:57:50;;;;;;;10.15;6.30;;;5.50;99.90;;;;;;6244785;23;20421;-79
2021/03/19 01:00:18;;;;;;;11.85;7.32;;;5.40;99.90;;;;;;6245115;23;20425;-73
2021/03/19 01:02:44;;;;;;;9.95;6.72;;;5.40;99.90;;;;;;6245588;23;20369;-73
2021/03/19 01:05:23;;;;;;;10.38;6.90;;;5.30;99.90;;;;;;6218967;23;20000;-77
2021/03/19 01:07:50;;;;;;;16.75;9.15;;;5.40;99.90;;;;;;6243398;23;20079;-75
2021/03/19 01:10:25;;;;;;;11.88;8.23;;;5.40;99.90;;;;;;6244064;23;20017;-76
2021/03/19 01:12:51;;;;;;;14.10;9.02;;;5.40;99.90;;;;;;6243210;23;20010;-79
2021/03/19 01:15:17;;;;;;;13.65;9.10;;;5.40;99.90;;;;;;6244819;23;20024;-75
2021/03/19 01:17:43;;;;;;;12.98;9.35;;;5.40;99.90;;;;;;6218052;23;20472;-78
2021/03/19 01:20:11;;;;;;;16.13;9.25;;;5.40;99.90;;;;;;6244574;23;20004;-78
2021/03/19 01:22:37;;;;;;;12.07;8.38;;;5.40;99.90;;;;;;6244915;23;20430;-75
2021/03/19 01:25:23;;;;;;;15.95;7.45;;;5.40;99.90;;;;;;6244381;23;20364;-74
2021/03/19 01:27:49;;;;;;;13.40;6.90;;;5.30;99.90;;;;;;6244333;23;20004;-76
2021/03/19 01:30:17;;;;;;;9.75;7.07;;;5.30;99.90;;;;;;6245207;23;20005;-76
2021/03/19 01:32:45;;;;;;;12.00;8.18;;;5.30;99.90;;;;;;6245003;23;20071;-75
2021/03/19 01:35:11;;;;;;;12.32;7.32;;;5.30;99.90;;;;;;6244526;23;19996;-76
2021/03/19 01:37:37;;;;;;;11.90;7.78;;;5.20;99.90;;;;;;6245138;23;20008;-77
2021/03/19 01:40:10;;;;;;;11.30;8.32;;;5.20;99.90;;;;;;6244815;23;20003;-78
2021/03/19 01:42:59;;;;;;;11.70;6.75;;;5.20;99.90;;;;;;6245038;23;20031;-77
2021/03/19 01:46:03;;;;;;;10.35;7.28;;;5.10;99.90;;;;;;6217046;23;20325;-77
2021/03/19 01:49:05;;;;;;;9.43;6.85;;;5.10;99.90;;;;;;6244240;23;20016;-75
2021/03/19 01:52:09;;;;;;;9.85;7.25;;;5.10;99.90;;;;;;6242601;23;20433;-77
2021/03/19 01:55:11;;;;;;;11.30;7.65;;;5.10;99.90;;;;;;6242890;23;20071;-74
2021/03/19 01:58:19;;;;;;;14.13;8.88;;;5.10;99.90;;;;;;6244776;23;20008;-77
2021/03/19 02:01:22;;;;;;;13.90;9.32;;;5.00;99.90;;;;;;6194526;23;20012;-76
2021/03/19 02:04:25;;;;;;;16.52;9.82;;;5.00;99.90;;;;;;6217929;23;20022;-77
2021/03/19 02:07:28;;;;;;;10.23;7.45;;;5.00;99.90;;;;;;6243994;23;20011;-76
2021/03/19 02:10:31;;;;;;;8.07;6.20;;;5.00;99.90;;;;;;6243343;23;20489;-77
2021/03/19 02:13:34;;;;;;;10.95;6.75;;;5.00;99.90;;;;;;6243484;23;20011;-78
2021/03/19 02:16:37;;;;;;;13.30;9.70;;;5.00;99.90;;;;;;6245226;23;20001;-79
2021/03/19 02:19:40;;;;;;;10.65;7.47;;;5.00;99.90;;;;;;6245354;23;20015;-77
2021/03/19 02:22:43;;;;;;;10.10;6.53;;;5.00;99.90;;;;;;6245093;23;20389;-78
2021/03/19 02:25:46;;;;;;;9.45;5.82;;;5.00;99.90;;;;;;6244503;23;20023;-77
2021/03/19 02:28:49;;;;;;;12.15;7.18;;;5.00;99.90;;;;;;6242959;23;20434;-78
2021/03/19 02:31:15;;;;;;;12.77;7.82;;;5.00;99.90;;;;;;6243738;23;20037;-79
2021/03/19 02:33:59;;;;;;;12.75;8.40;;;5.00;99.90;;;;;;6243382;23;20333;-78
2021/03/19 02:36:28;;;;;;;11.73;7.68;;;5.00;99.90;;;;;;6244091;23;20012;-78
2021/03/19 02:38:54;;;;;;;10.88;6.55;;;5.00;99.90;;;;;;6217652;23;20000;-76
2021/03/19 02:41:21;;;;;;;12.20;7.35;;;5.00;99.90;;;;;;6244942;23;20014;-78
2021/03/19 02:43:46;;;;;;;11.13;6.32;;;5.00;99.90;;;;;;6244399;23;20008;-77
2021/03/19 02:46:13;;;;;;;8.63;6.43;;;5.00;99.90;;;;;;6244806;23;20004;-78
2021/03/19 02:48:39;;;;;;;9.18;6.40;;;5.00;99.90;;;;;;6243021;23;20396;-78
2021/03/19 02:51:06;;;;;;;8.57;6.03;;;5.00;99.90;;;;;;6243752;23;20012;-78
2021/03/19 02:53:34;;;;;;;10.73;6.68;;;5.00;99.90;;;;;;6242758;23;20007;-78
2021/03/19 02:56:02;;;;;;;9.98;6.45;;;5.10;99.90;;;;;;6244409;23;20000;-78
2021/03/19 02:58:28;;;;;;;10.48;5.63;;;5.10;99.90;;;;;;6244870;23;20000;-77
2021/03/19 03:00:54;;;;;;;8.80;6.25;;;5.00;99.90;;;;;;6216897;23;20448;-77
2021/03/19 03:03:20;;;;;;;11.25;6.60;;;5.00;99.90;;;;;;6244391;23;20060;-72
2021/03/19 03:05:46;;;;;;;10.93;5.97;;;5.10;99.90;;;;;;6244906;23;20001;-79
2021/03/19 03:08:15;;;;;;;11.70;6.57;;;5.00;99.90;;;;;;6241549;23;20039;-74
2021/03/19 03:10:42;;;;;;;8.23;6.15;;;5.00;99.90;;;;;;6242604;23;20000;-80
2021/03/19 03:13:10;;;;;;;9.75;6.53;;;5.00;99.70;;;;;;6242842;23;20083;-78
2021/03/19 03:15:36;;;;;;;9.23;6.00;;;5.00;99.80;;;;;;6243303;23;20000;-79
2021/03/19 03:18:02;;;;;;;11.25;6.85;;;5.00;99.90;;;;;;6244143;23;20000;-77
2021/03/19 03:20:33;;;;;;;17.75;6.90;;;5.00;99.90;;;;;;6244394;23;19993;-74
2021/03/19 03:22:59;;;;;;;13.70;6.28;;;5.00;99.90;;;;;;6245951;23;20319;-77
2021/03/19 03:25:25;;;;;;;11.10;6.50;;;4.90;99.80;;;;;;6245643;23;20008;-75
2021/03/19 03:27:52;;;;;;;10.85;6.68;;;4.90;99.70;;;;;;6244670;23;20011;-79
2021/03/19 03:30:43;;;;;;;9.10;6.60;;;5.00;99.70;;;;;;6243702;23;20023;-78
2021/03/19 03:33:09;;;;;;;9.25;5.90;;;4.90;99.90;;;;;;6245428;23;20004;-78
2021/03/19 03:35:35;;;;;;;13.10;7.53;;;5.00;99.90;;;;;;6246152;23;20023;-77
2021/03/19 03:38:04;;;;;;;11.85;7.75;;;5.00;99.90;;;;;;6244939;23;20008;-78
2021/03/19 03:40:37;;;;;;;14.43;7.88;;;5.00;99.90;;;;;;6245491;23;20062;-73
2021/03/19 03:43:03;;;;;;;10.80;6.43;;;4.90;99.90;;;;;;6245624;23;20310;-78
2021/03/19 03:45:29;;;;;;;10.02;6.68;;;4.90;99.90;;;;;;6246276;23;20012;-78
2021/03/19 03:47:54;;;;;;;10.60;6.88;;;4.90;99.90;;;;;;6245199;23;20024;-73
2021/03/19 03:50:23;;;;;;;10.10;7.07;;;4.80;99.90;;;;;;6243491;23;20448;-77
2021/03/19 03:52:50;;;;;;;10.60;6.28;;;4.80;99.90;;;;;;6243896;23;20004;-72
2021/03/19 03:55:18;;;;;;;10.27;7.95;;;4.80;99.90;;;;;;6244685;23;20000;-76
2021/03/19 03:57:43;;;;;;;9.95;6.93;;;4.80;99.90;;;;;;6245551;23;20326;-77
2021/03/19 04:00:12;;;;;;;10.38;7.30;;;4.80;99.80;;;;;;6245621;23;19996;-76
2021/03/19 04:02:38;;;;;;;10.27;7.22;;;4.80;99.90;;;;;;6245072;23;20062;-76
2021/03/19 04:05:07;;;;;;;9.75;6.97;;;4.80;99.90;;;;;;6245522;23;20014;-75
2021/03/19 04:07:33;;;;;;;8.57;6.13;;;4.80;99.90;;;;;;6244279;23;20004;-77
2021/03/19 04:09:59;;;;;;;9.65;6.30;;;4.80;99.70;;;;;;6242500;23;19996;-78
2021/03/19 04:12:25;;;;;;;9.52;6.55;;;4.80;99.70;;;;;;6243973;23;20008;-78
2021/03/19 04:14:51;;;;;;;10.15;6.97;;;4.80;99.90;;;;;;6244689;23;20334;-77
2021/03/19 04:17:29;;;;;;;9.65;6.47;;;4.80;99.60;;;;;;6244539;23;19996;-78
2021/03/19 04:19:56;;;;;;;14.43;6.75;;;4.80;99.70;;;;;;6243784;23;20010;-78
2021/03/19 04:22:22;;;;;;;10.57;7.20;;;4.80;99.90;;;;;;6244675;23;20020;-76
2021/03/19 04:24:48;;;;;;;10.95;7.13;;;4.80;99.90;;;;;;6243614;23;20674;-77
2021/03/19 04:27:20;;;;;;;14.77;7.05;;;4.80;99.90;;;;;;6245033;23;20334;-78
2021/03/19 04:29:47;;;;;;;10.75;7.15;;;4.80;99.90;;;;;;6243974;23;20003;-77
2021/03/19 04:32:13;;;;;;;14.05;7.78;;;4.80;99.90;;;;;;6244832;23;20057;-78
2021/03/19 04:34:39;;;;;;;10.65;6.40;;;4.80;99.90;;;;;;6245240;23;20392;-75
2021/03/19 04:37:05;;;;;;;10.60;6.82;;;4.80;99.90;;;;;;6244363;23;20086;-77
2021/03/19 04:39:32;;;;;;;10.68;6.78;;;4.80;99.90;;;;;;6244323;23;20054;-78
2021/03/19 04:42:01;;;;;;;10.15;7.05;;;4.80;99.90;;;;;;6245403;23;20037;-77
2021/03/19 04:44:30;;;;;;;9.68;6.80;;;4.70;99.70;;;;;;6217944;23;20000;-75
2021/03/19 04:46:56;;;;;;;11.00;7.07;;;4.80;99.60;;;;;;6218472;23;20465;-78
2021/03/19 04:49:22;;;;;;;11.80;7.18;;;4.80;99.40;;;;;;6244252;23;20008;-78
2021/03/19 04:51:48;;;;;;;14.18;8.38;;;4.80;99.50;;;;;;6243708;23;20012;-74
2021/03/19 04:54:14;;;;;;;14.02;6.70;;;4.70;99.60;;;;;;6244368;23;20004;-78
2021/03/19 04:56:40;;;;;;;11.57;6.55;;;4.70;99.70;;;;;;6245066;23;20004;-75
2021/03/19 04:59:07;;;;;;;11.57;6.55;;;4.70;99.70;;;;;;6244981;23;20004;-77
2021/03/19 05:01:44;;;;;;;10.05;6.70;;;4.70;99.00;;;;;;6245142;23;20150;-77
2021/03/19 05:04:10;;;;;;;11.30;6.47;;;4.70;99.10;;;;;;6244235;23;20059;-73
2021/03/19 05:06:36;;;;;;;10.60;6.47;;;4.70;99.00;;;;;;6244224;23;20004;-72
2021/03/19 05:09:02;;;;;;;9.73;6.47;;;4.70;99.10;;;;;;6243963;23;19997;-76
2021/03/19 05:11:27;;;;;;;10.93;6.80;;;4.70;99.30;;;;;;6244000;23;20054;-76
2021/03/19 05:13:54;;;;;;;9.70;6.63;;;4.70;99.10;;;;;;6244374;23;20087;-77
2021/03/19 05:16:20;;;;;;;13.10;6.75;;;4.70;98.80;;;;;;6244837;23;20000;-73
2021/03/19 05:18:45;;;;;;;10.35;6.85;;;4.70;98.70;;;;;;6245128;23;20008;-79
2021/03/19 05:21:11;;;;;;;12.55;6.82;;;4.70;98.80;;;;;;6244288;23;20078;-74
2021/03/19 05:23:37;;;;;;;8.63;5.97;;;4.70;98.80;;;;;;6244012;23;20004;-76
2021/03/19 05:26:05;;;;;;;8.80;6.18;;;4.80;98.40;;;;;;6243586;23;20430;-76
2021/03/19 05:28:30;;;;;;;9.65;6.20;;;4.70;98.50;;;;;;6242683;23;20418;-75
2021/03/19 05:30:57;;;;;;;8.30;6.22;;;4.70;98.60;;;;;;6243818;23;20079;-76
2021/03/19 05:33:47;;;;;;;9.52;6.35;;;4.80;98.50;;;;;;6244187;23;20059;-76
2021/03/19 05:36:15;;;;;;;7.75;5.82;;;4.90;98.50;;;;;;6244150;23;20007;-76
2021/03/19 05:38:42;;;;;;;8.30;5.82;;;5.10;98.50;;;;;;6242890;23;20035;-73
2021/03/19 05:41:09;;;;;;;8.60;6.18;;;5.30;97.90;;;;;;6243759;23;20003;-74
2021/03/19 05:43:47;;;;;;;9.30;6.45;;;5.40;97.70;;;;;;6244617;23;20008;-75
2021/03/19 05:46:16;;;;;;;8.82;5.65;;;5.50;97.70;;;;;;6244350;23;20004;-77
2021/03/19 05:48:51;;;;;;;13.40;6.72;;;5.90;97.60;;;;;;6244311;23;20016;-75
2021/03/19 05:51:37;;;;;;;8.15;5.47;;;6.40;96.90;;;;;;6243798;23;20057;-77
2021/03/19 05:54:21;;;;;;;9.23;6.78;;;6.90;96.20;;;;;;6244660;23;20071;-76
2021/03/19 05:56:52;;;;;;;11.63;5.82;;;7.40;95.20;;;;;;6244119;23;20024;-76
2021/03/19 05:59:17;;;;;;;9.65;5.88;;;7.90;94.70;;;;;;6243877;23;20000;-76
2021/03/19 06:01:43;;;;;;;9.55;6.20;;;8.30;93.90;;;;;;6244082;23;20023;-77
2021/03/19 06:04:19;;;;;;;14.10;6.30;;;8.70;93.30;;;;;;6242573;23;20004;-78
2021/03/19 06:06:49;;;;;;;10.73;6.40;;;9.10;93.10;;;;;;6243959;23;20000;-76
2021/03/19 06:09:33;;;;;;;11.30;5.60;;;9.40;92.20;;;;;;6243045;23;20004;-75
2021/03/19 06:12:04;;;;;;;10.55;5.60;;;9.80;91.50;;;;;;6243716;23;20378;-75
2021/03/19 06:14:40;;;;;;;8.85;6.25;;;10.30;91.10;;;;;;6242447;23;20069;-76
2021/03/19 06:17:19;;;;;;;9.05;5.68;;;10.20;90.80;;;;;;6242527;23;20028;-72
2021/03/19 06:20:02;;;;;;;10.35;6.25;;;10.30;90.90;;;;;;6243775;23;20000;-72
2021/03/19 06:22:34;;;;;;;12.90;6.32;;;10.60;90.50;;;;;;6244346;23;20337;-72
2021/03/19 06:25:17;;;;;;;8.00;5.63;;;10.80;90.10;;;;;;6244671;23;20330;-71
2021/03/19 06:27:56;;;;;;;9.30;6.25;;;10.90;88.80;;;;;;6244087;23;20000;-72
2021/03/19 06:30:43;;;;;;;13.13;5.72;;;11.00;88.60;;;;;;6243888;23;20007;-72
2021/03/19 06:33:12;;;;;;;9.93;5.57;;;11.30;87.60;;;;;;6243370;23;20464;-72
2021/03/19 06:35:58;;;;;;;10.35;5.72;;;11.70;86.20;;;;;;6243323;23;20321;-72
2021/03/19 06:38:33;;;;;;;8.48;5.82;;;12.00;84.20;;;;;;6242758;23;20019;-73
2021/03/19 06:41:31;;;;;;;10.23;5.43;;;12.10;84.00;;;;;;6243900;23;20004;-74
2021/03/19 06:44:17;;;;;;;8.68;5.50;;;12.30;82.90;;;;;;6243807;23;20441;-72
2021/03/19 06:46:45;;;;;;;7.68;4.65;;;12.50;82.20;;;;;;6245993;23;20424;-76
2021/03/19 06:49:12;;;;;;;8.93;5.10;;;12.80;81.80;;;;;;6244383;23;20038;-72
2021/03/19 06:51:41;;;;;;;7.93;5.40;;;12.90;80.50;;;;;;6243722;23;20004;-71
2021/03/19 06:54:14;;;;;;;8.15;4.80;;;13.00;78.90;;;;;;6244913;23;20038;-77
2021/03/19 06:56:59;;;;;;;7.22;5.00;;;13.10;79.10;;;;;;6246461;23;20074;-75
2021/03/19 06:59:27;;;;;;;10.18;4.70;;;13.50;78.60;;;;;;6240087;23;20390;-72
2021/03/19 07:01:54;;;;;;;39.10;20.20;;;14.10;77.40;;;;;;6242002;23;20046;-72
2021/03/19 07:04:50;;;;;;;8.60;5.60;;;14.50;75.60;;;;;;6242387;23;20004;-75
2021/03/19 07:07:34;;;;;;;6.50;4.30;;;14.60;75.40;;;;;;6244774;23;20011;-73
2021/03/19 07:10:39;;;;;;;10.32;5.25;;;14.80;74.80;;;;;;6243959;23;20413;-74
2021/03/19 07:13:33;;;;;;;7.70;5.05;;;15.30;74.00;;;;;;6242659;23;20019;-72
2021/03/19 07:16:12;;;;;;;6.72;5.00;;;15.40;73.70;;;;;;6245231;23;20357;-75
2021/03/19 07:18:53;;;;;;;9.50;5.18;;;15.50;71.70;;;;;;6243609;23;20036;-74
2021/03/19 07:21:26;;;;;;;7.97;5.25;;;15.30;73.20;;;;;;6243671;23;19996;-73
2021/03/19 07:24:30;;;;;;;14.50;6.13;;;15.80;72.80;;;;;;6244504;23;20345;-73
2021/03/19 07:27:17;;;;;;;7.57;5.47;;;16.30;71.30;;;;;;6189030;23;20655;-73
2021/03/19 07:30:13;;;;;;;12.95;5.10;;;16.90;69.90;;;;;;6245476;23;20010;-72
2021/03/19 07:32:42;;;;;;;11.50;5.35;;;17.10;69.50;;;;;;6245969;23;20004;-72
2021/03/19 07:35:39;;;;;;;10.68;6.45;;;16.80;69.00;;;;;;6217834;23;20059;-73
2021/03/19 07:38:26;;;;;;;9.38;6.65;;;16.70;65.80;;;;;;6242784;23;20008;-71
2021/03/19 07:41:06;;;;;;;5.90;4.60;;;16.70;67.30;;;;;;6244751;23;20053;-72
2021/03/19 07:43:48;;;;;;;10.20;4.57;;;16.60;66.50;;;;;;6242049;23;20071;-72
2021/03/19 07:46:18;;;;;;;11.68;6.07;;;16.50;64.80;;;;;;6242874;23;20547;-77
2021/03/19 07:49:07;;;;;;;24.70;18.15;;;16.20;64.80;;;;;;6243873;23;20485;-71
2021/03/19 07:52:10;;;;;;;21.08;13.57;;;15.60;65.30;;;;;;6148269;23;20012;-72
2021/03/19 07:55:03;;;;;;;10.20;6.40;;;15.10;68.30;;;;;;6217510;23;20019;-71
2021/03/19 07:58:08;;;;;;;8.65;5.00;;;15.10;67.30;;;;;;6243752;23;20418;-72
2021/03/19 08:00:44;;;;;;;6.70;4.47;;;15.10;67.80;;;;;;6245238;23;20001;-73
2021/03/19 08:03:23;;;;;;;14.32;7.03;;;15.30;66.20;;;;;;6244454;23;20414;-73
2021/03/19 08:05:52;;;;;;;8.68;4.40;;;15.10;66.50;;;;;;6244759;23;20000;-72
2021/03/19 08:08:54;;;;;;;5.25;4.18;;;14.90;65.90;;;;;;6217638;23;20012;-73
2021/03/19 08:11:37;;;;;;;8.80;5.43;;;14.90;66.10;;;;;;6242934;23;20072;-73
2021/03/19 08:14:03;;;;;;;9.45;4.80;;;14.80;66.20;;;;;;6244950;23;20000;-72
2021/03/19 08:16:39;;;;;;;6.90;4.65;;;14.90;66.60;;;;;;6245487;23;19996;-72
2021/03/19 08:19:34;;;;;;;9.20;5.35;;;14.80;65.10;;;;;;6245001;23;20341;-71
2021/03/19 08:22:28;;;;;;;10.25;7.85;;;14.80;65.50;;;;;;6245089;23;20004;-73
2021/03/19 08:25:09;;;;;;;6.50;4.30;;;14.90;64.00;;;;;;6187345;23;20004;-72
2021/03/19 08:27:38;;;;;;;16.83;4.53;;;14.70;63.70;;;;;;6242575;23;20004;-72
2021/03/19 08:30:07;;;;;;;9.45;4.22;;;14.70;64.40;;;;;;6244486;23;20046;-73
2021/03/19 08:33:00;;;;;;;14.32;4.80;;;14.90;64.20;;;;;;6244219;23;20072;-74
2021/03/19 08:35:42;;;;;;;14.98;3.80;;;15.10;64.50;;;;;;6244789;23;20003;-74
2021/03/19 08:38:29;;;;;;;16.48;4.97;;;15.30;63.30;;;;;;6244018;23;20003;-73
2021/03/19 08:41:04;;;;;;;16.67;4.43;;;15.20;62.30;;;;;;6244474;23;20008;-74
2021/03/19 08:43:30;;;;;;;8.95;4.05;;;14.70;63.90;;;;;;6242107;23;20016;-74
2021/03/19 08:46:39;;;;;;;9.95;4.25;;;14.80;63.60;;;;;;6244530;23;20366;-77
2021/03/19 08:49:13;;;;;;;11.40;7.63;;;15.00;63.60;;;;;;6237212;23;20027;-73
2021/03/19 08:51:44;;;;;;;29.73;17.52;;;15.00;63.90;;;;;;6242066;23;20393;-74
2021/03/19 08:54:14;;;;;;;14.55;10.52;;;15.20;64.80;;;;;;6210174;23;20339;-74
2021/03/19 08:56:52;;;;;;;12.35;8.65;;;15.60;63.70;;;;;;6240447;23;20426;-74
2021/03/19 08:59:36;;;;;;;6.97;4.75;;;15.60;63.60;;;;;;6238299;23;20503;-74
2021/03/19 09:02:05;;;;;;;11.02;6.35;;;15.80;62.50;;;;;;6241915;23;20032;-73
2021/03/19 09:05:00;;;;;;;19.90;13.73;;;16.10;61.80;;;;;;6244629;23;20008;-74
2021/03/19 09:07:26;;;;;;;9.45;5.05;;;16.20;61.40;;;;;;6240624;23;20000;-74
2021/03/19 09:09:55;;;;;;;10.88;6.07;;;16.10;61.80;;;;;;6243370;23;20081;-74
2021/03/19 09:12:51;;;;;;;4.38;3.22;;;15.90;61.40;;;;;;6237666;23;20012;-76
2021/03/19 09:15:20;;;;;;;4.47;3.15;;;16.30;61.40;;;;;;6242334;23;20006;-73
2021/03/19 09:17:49;;;;;;;3.45;2.90;;;16.70;59.40;;;;;;6240869;23;20004;-74
2021/03/19 09:20:36;;;;;;;5.82;3.40;;;16.70;57.90;;;;;;6242843;23;20031;-74
2021/03/19 09:23:08;;;;;;;8.77;3.65;;;16.90;58.60;;;;;;6244417;23;20012;-74
2021/03/19 09:25:41;;;;;;;;;;;16.80;58.40;;;;;;6243762;23;20047;-73
2021/03/19 09:28:17;;;;;;;6.30;3.92;;;16.60;59.70;;;;;;6242924;23;19903;-76
2021/03/19 09:30:47;;;;;;;3.53;3.13;;;16.50;60.30;;;;;;6243469;23;20334;-76
2021/03/19 09:33:44;;;;;;;9.38;3.40;;;16.40;58.70;;;;;;6217621;23;20004;-74
2021/03/19 09:36:47;;;;;;;5.70;3.35;;;16.20;59.70;;;;;;6243842;23;20384;-74
2021/03/19 09:39:52;;;;;;;4.38;3.03;;;16.20;60.70;;;;;;6243598;23;20325;-78
2021/03/19 09:42:17;;;;;;;5.05;3.10;;;16.00;59.90;;;;;;6217199;23;20373;-72
2021/03/19 09:45:06;;;;;;;6.75;3.22;;;15.80;60.30;;;;;;6244656;23;20142;-73
2021/03/19 09:47:42;;;;;;;20.92;4.30;;;15.40;61.10;;;;;;6224873;23;20020;-74
2021/03/19 09:50:32;;;;;;;6.05;3.28;;;15.00;61.10;;;;;;5061556;27;20397;-74
2021/03/19 09:53:07;;;;;;;6.43;3.80;;;15.00;62.00;;;;;;5064317;28;20021;-73
2021/03/19 09:55:40;;;;;;;4.10;3.42;;;14.80;62.20;;;;;;5056224;28;20040;-73
2021/03/19 09:58:57;;;;;;;7.65;3.60;;;14.40;60.70;;;;;;5058533;28;20519;-72
2021/03/19 10:01:43;;;;;;;5.20;3.67;;;14.10;62.30;;;;;;5070022;28;20072;-73
2021/03/19 10:04:12;;;;;;;5.15;3.42;;;14.10;62.00;;;;;;5055737;28;20029;-78
2021/03/19 10:06:45;;;;;;;4.07;3.35;;;14.10;62.90;;;;;;5060127;28;20031;-77
2021/03/19 10:12:14;;;;;;;8.82;3.83;;;13.80;61.50;;;;;;5056842;28;20037;-78
2021/03/19 10:14:43;;;;;;;3.83;3.17;;;13.80;62.30;;;;;;5056853;28;20017;-78
2021/03/19 10:17:08;;;;;;;5.97;3.35;;;13.90;61.80;;;;;;5053825;28;20021;-76
2021/03/19 10:19:37;;;;;;;6.43;2.70;;;14.00;62.40;;;;;;5053617;28;20111;-76
2021/03/19 10:22:04;;;;;;;3.25;2.92;;;14.10;60.10;;;;;;5053938;28;20040;-80
2021/03/19 10:24:29;;;;;;;3.88;2.92;;;14.10;60.90;;;;;;5053927;28;20071;-78
2021/03/19 10:27:23;;;;;;;3.65;2.95;;;14.00;60.70;;;;;;5055693;28;20021;-73
2021/03/19 10:29:51;;;;;;;8.45;5.00;;;13.90;60.00;;;;;;5061536;28;20427;-76
2021/03/19 10:32:23;;;;;;;3.63;3.15;;;13.90;61.10;;;;;;5052288;28;20024;-74
2021/03/19 10:35:09;;;;;;;6.53;3.17;;;13.90;61.00;;;;;;5063513;28;20033;-74
2021/03/19 10:37:57;;;;;;;3.50;2.70;;;13.70;61.00;;;;;;5054647;28;20029;-75
2021/03/19 10:40:40;;;;;;;4.88;3.45;;;13.60;59.80;;;;;;5062549;28;20028;-73
2021/03/19 10:43:19;;;;;;;5.82;3.40;;;13.50;60.90;;;;;;5062944;28;20457;-72
2021/03/19 10:45:54;;;;;;;4.53;3.20;;;13.60;61.60;;;;;;5061672;28;20070;-72
2021/03/19 10:48:55;;;;;;;4.70;3.70;;;13.60;61.90;;;;;;5059853;28;20052;-74
2021/03/19 10:51:39;;;;;;;5.25;3.55;;;13.40;62.00;;;;;;5061659;28;20040;-76
2021/03/19 10:54:23;;;;;;;5.35;3.80;;;13.40;61.70;;;;;;5057300;28;20051;-77
2021/03/19 10:56:56;;;;;;;4.72;3.28;;;13.30;62.60;;;;;;5055868;28;20028;-74
2021/03/19 10:59:28;;;;;;;4.18;3.38;;;13.40;62.80;;;;;;5058200;28;20025;-75
2021/03/19 11:02:06;;;;;;;8.13;3.30;;;13.40;63.80;;;;;;5044710;28;20029;-78
2021/03/19 11:04:48;;;;;;;5.50;4.05;;;13.40;64.10;;;;;;5046669;28;20021;-75
2021/03/19 11:07:23;;;;;;;14.02;3.63;;;13.40;62.60;;;;;;5046707;28;20037;-77
2021/03/19 11:10:01;;;;;;;9.45;6.22;;;13.50;61.40;;;;;;5042447;28;20033;-75
2021/03/19 11:12:57;;;;;;;14.30;7.65;;;13.40;63.30;;;;;;5042451;28;20400;-76
2021/03/19 11:15:23;;;;;;;6.07;3.90;;;13.30;63.60;;;;;;5037350;28;20025;-75
2021/03/19 11:18:27;;;;;;;5.43;3.47;;;13.30;63.00;;;;;;5037791;28;20124;-76
2021/03/19 11:20:54;;;;;;;5.70;3.78;;;13.40;62.20;;;;;;5046902;28;20020;-76
2021/03/19 11:23:32;;;;;;;5.93;3.38;;;13.30;63.10;;;;;;5038641;28;20109;-77
2021/03/19 11:25:59;;;;;;;4.88;3.90;;;13.20;62.20;;;;;;5049770;28;20100;-78
2021/03/19 11:28:31;;;;;;;8.50;3.70;;;13.00;63.30;;;;;;5044820;28;20416;-73
2021/03/19 11:31:18;;;;;;;10.60;4.28;;;13.00;62.40;;;;;;5041730;28;20029;-77
2021/03/19 11:34:06;;;;;;;9.40;2.97;;;12.90;61.60;;;;;;5042701;28;20061;-74
2021/03/19 11:36:54;;;;;;;6.00;3.50;;;13.00;61.90;;;;;;5042747;28;20025;-78
2021/03/19 11:39:43;;;;;;;5.05;3.85;;;13.00;61.40;;;;;;5044651;28;20023;-73
2021/03/19 11:42:14;;;;;;;11.40;6.60;;;13.10;62.50;;;;;;5047681;28;20045;-79
2021/03/19 11:44:45;;;;;;;6.53;3.88;;;13.10;63.00;;;;;;5042770;28;20036;-75
2021/03/19 11:47:30;;;;;;;8.35;5.38;;;12.80;63.20;;;;;;5043481;28;20029;-79
2021/03/19 11:50:15;;;;;;;5.50;4.07;;;12.50;63.50;;;;;;5045204;28;20075;-78
2021/03/19 11:52:40;;;;;;;4.03;3.45;;;12.40;63.90;;;;;;5040735;28;20028;-73
2021/03/19 11:55:07;;;;;;;6.20;3.03;;;12.40;63.70;;;;;;5042069;28;20486;-75
2021/03/19 11:57:33;;;;;;;5.25;3.53;;;12.60;64.00;;;;;;5040911;28;20033;-79
2021/03/19 11:59:59;;;;;;;4.15;3.30;;;12.80;63.00;;;;;;5045020;28;20017;-79
2021/03/19 12:02:49;;;;;;;8.52;4.57;;;12.90;62.60;;;;;;5037847;28;20454;-77
2021/03/19 12:05:15;;;;;;;5.35;3.63;;;12.90;63.90;;;;;;5040400;28;20571;-74
2021/03/19 12:07:44;;;;;;;5.75;3.28;;;12.80;63.50;;;;;;5042043;28;20388;-73
2021/03/19 12:10:11;;;;;;;5.10;3.22;;;12.80;63.20;;;;;;5048172;28;20052;-73
2021/03/19 12:12:37;;;;;;;4.85;3.22;;;12.80;61.80;;;;;;5042574;28;20028;-73
2021/03/19 12:15:04;;;;;;;11.60;7.35;;;12.90;62.00;;;;;;5042654;28;20029;-72
2021/03/19 12:17:29;;;;;;;6.38;3.35;;;12.80;62.70;;;;;;5041546;28;20481;-74
2021/03/19 12:19:55;;;;;;;3.95;3.05;;;12.60;63.00;;;;;;5042093;28;20032;-77
2021/03/19 12:22:21;;;;;;;4.18;3.13;;;12.70;60.50;;;;;;5048108;28;20473;-77
2021/03/19 12:24:47;;;;;;;5.85;3.30;;;12.70;58.80;;;;;;5042755;28;20481;-75
2021/03/19 12:27:14;;;;;;;5.45;3.35;;;12.70;59.00;;;;;;5046673;28;20052;-78
2021/03/19 12:29:40;;;;;;;5.07;3.40;;;12.70;59.70;;;;;;5043917;28;20033;-73
2021/03/19 12:32:06;;;;;;;3.97;3.03;;;12.80;62.90;;;;;;5043880;28;20036;-73
2021/03/19 12:34:33;;;;;;;10.70;5.13;;;12.90;62.10;;;;;;5035891;28;20104;-74
2021/03/19 12:36:59;;;;;;;10.45;6.88;;;13.00;62.30;;;;;;5042103;28;20029;-74
2021/03/19 12:39:25;;;;;;;5.88;4.50;;;12.80;62.80;;;;;;5043999;28;20048;-72
2021/03/19 12:41:51;;;;;;;8.32;3.85;;;12.70;62.60;;;;;;5050235;28;20469;-73
2021/03/19 12:44:18;;;;;;;4.15;2.75;;;12.50;60.90;;;;;;5052042;28;20036;-72
2021/03/19 12:46:44;;;;;;;7.03;3.78;;;12.50;60.90;;;;;;5053254;28;20052;-73
2021/03/19 12:49:10;;;;;;;8.38;4.80;;;12.50;61.20;;;;;;5047308;28;20053;-73
2021/03/19 12:51:35;;;;;;;5.60;4.28;;;12.50;61.40;;;;;;5052379;28;20021;-72
2021/03/19 12:54:01;;;;;;;4.30;3.65;;;12.30;61.40;;;;;;5053246;28;20036;-72
2021/03/19 12:56:27;;;;;;;7.43;4.32;;;12.20;62.40;;;;;;5053034;28;20162;-72
2021/03/19 12:58:53;;;;;;;4.75;2.75;;;12.10;62.70;;;;;;5051754;28;20518;-72
2021/03/19 13:01:20;;;;;;;3.90;3.08;;;12.10;63.00;;;;;;5051358;28;20036;-73
2021/03/19 13:03:48;;;;;;;5.00;3.60;;;12.10;60.90;;;;;;5051705;28;20094;-72
2021/03/19 13:06:16;;;;;;;4.75;4.07;;;12.20;61.70;;;;;;5053179;28;20028;-72
2021/03/19 13:08:42;;;;;;;3.38;3.05;;;12.30;61.80;;;;;;5052929;28;20057;-72
2021/03/19 13:11:09;;;;;;;4.53;3.08;;;12.20;60.50;;;;;;5050625;28;20114;-72
2021/03/19 13:13:34;;;;;;;3.42;2.88;;;12.10;60.50;;;;;;5051792;28;20020;-72
2021/03/19 13:16:00;;;;;;;12.73;3.75;;;12.10;60.70;;;;;;5052365;28;20429;-72
2021/03/19 13:18:26;;;;;;;4.05;3.00;;;12.20;60.80;;;;;;5046639;28;20122;-72
2021/03/19 13:20:51;;;;;;;2.88;2.58;;;12.00;59.20;;;;;;5041257;28;20045;-73
2021/03/19 13:23:17;;;;;;;4.70;3.00;;;12.00;59.10;;;;;;5043009;28;20071;-73
2021/03/19 13:25:47;;;;;;;3.75;2.72;;;12.10;59.30;;;;;;5048801;28;20029;-73
2021/03/19 13:28:16;;;;;;;6.30;3.00;;;12.10;58.80;;;;;;5047650;28;20358;-73
2021/03/19 13:30:44;;;;;;;7.15;2.55;;;12.20;58.40;;;;;;5040862;28;20385;-74